createdAt,value
2019-05-21T00:00:10.613Z,20.12
2019-05-21T00:02:39.520Z,19.73
2019-05-21T00:05:07.426Z,19.02
2019-05-21T00:07:35.178Z,20.08
2019-05-21T00:10:03.026Z,19.83
2019-05-21T00:12:30.829Z,20.85
2019-05-21T00:15:00.555Z,20.30
2019-05-21T00:17:28.145Z,20.10
2019-05-21T00:19:55.735Z,21.37
2019-05-21T00:22:24.438Z,21.15
2019-05-21T00:24:52.040Z,21.90
2019-05-21T00:27:20.106Z,21.10
2019-05-21T00:30:24.553Z,18.20
2019-05-21T00:33:28.692Z,19.90
2019-05-21T00:36:34.129Z,21.77
2019-05-21T00:39:39.117Z,15.88
2019-05-21T00:42:06.045Z,16.87
2019-05-21T00:44:40.437Z,18.73
2019-05-21T00:47:10.690Z,20.32
2019-05-21T00:49:38.589Z,19.57
2019-05-21T00:52:08.534Z,16.95
2019-05-21T00:54:36.510Z,18.80
2019-05-21T00:57:04.189Z,20.30
2019-05-21T00:59:31.714Z,16.73
2019-05-21T01:02:00.283Z,19.10
2019-05-21T01:04:28.183Z,21.70
2019-05-21T01:06:55.944Z,22.40
2019-05-21T01:09:23.890Z,23.93
2019-05-21T01:11:52.008Z,24.87
2019-05-21T01:14:19.624Z,21.12
2019-05-21T01:16:47.819Z,17.23
2019-05-21T01:19:16.118Z,19.52
2019-05-21T01:21:43.647Z,19.73
2019-05-21T01:24:11.247Z,19.77
2019-05-21T01:26:40.382Z,19.40
2019-05-21T01:29:08.328Z,19.45
2019-05-21T01:31:35.935Z,19.00
2019-05-21T01:34:03.701Z,19.73
2019-05-21T01:36:32.553Z,18.87
2019-05-21T01:39:00.736Z,21.07
2019-05-21T01:41:28.342Z,18.07
2019-05-21T01:43:56.236Z,18.77
2019-05-21T01:46:23.982Z,21.35
2019-05-21T01:48:51.510Z,21.57
2019-05-21T01:51:19.730Z,22.23
2019-05-21T01:53:48.442Z,21.35
2019-05-21T01:56:16.146Z,19.80
2019-05-21T01:58:44.151Z,20.10
2019-05-21T02:01:12.123Z,24.63
2019-05-21T02:03:39.748Z,20.72
2019-05-21T02:06:08.982Z,18.82
2019-05-21T02:08:37.189Z,18.70
2019-05-21T02:11:05.081Z,18.67
2019-05-21T02:13:32.787Z,17.75
2019-05-21T02:16:00.706Z,15.60
2019-05-21T02:18:28.700Z,16.65
2019-05-21T02:20:56.601Z,16.95
2019-05-21T02:23:24.816Z,15.10
2019-05-21T02:25:52.969Z,16.12
2019-05-21T02:28:20.515Z,19.27
2019-05-21T02:30:48.023Z,20.37
2019-05-21T02:33:15.571Z,20.67
2019-05-21T02:35:53.776Z,29.10
2019-05-21T02:38:13.413Z,26.80
2019-05-21T02:40:41.026Z,15.38
2019-05-21T02:43:08.760Z,14.38
2019-05-21T02:45:36.900Z,14.38
2019-05-21T02:48:05.083Z,14.47
2019-05-21T02:50:32.694Z,13.22
2019-05-21T02:53:01.057Z,14.45
2019-05-21T02:55:28.571Z,15.90
2019-05-21T02:57:56.549Z,12.98
2019-05-21T03:01:02.247Z,11.90
2019-05-21T03:03:30.927Z,13.30
2019-05-21T03:06:13.293Z,13.50
2019-05-21T03:08:28.380Z,13.60
2019-05-21T03:10:56.000Z,17.20
2019-05-21T03:13:24.349Z,19.75
2019-05-21T03:15:51.930Z,17.90
2019-05-21T03:18:19.564Z,19.02
2019-05-21T03:20:47.598Z,19.65
2019-05-21T03:23:15.227Z,20.80
2019-05-21T03:25:42.793Z,23.02
2019-05-21T03:28:10.798Z,19.32
2019-05-21T03:30:38.867Z,18.55
2019-05-21T03:33:06.566Z,19.40
2019-05-21T03:35:34.719Z,19.55
2019-05-21T03:38:02.753Z,26.25
2019-05-21T03:40:30.354Z,21.68
2019-05-21T03:42:58.037Z,19.90
2019-05-21T03:45:25.659Z,21.77
2019-05-21T03:47:53.250Z,19.95
2019-05-21T03:50:21.606Z,22.48
2019-05-21T03:52:49.271Z,23.73
2019-05-21T03:55:17.316Z,23.02
2019-05-21T03:57:44.904Z,22.15
2019-05-21T04:00:13.264Z,23.47
2019-05-21T04:02:41.322Z,22.07
2019-05-21T04:05:09.155Z,22.43
2019-05-21T04:07:38.265Z,24.03
2019-05-21T04:10:13.717Z,24.00
2019-05-21T04:12:41.433Z,25.40
2019-05-21T04:15:11.936Z,27.52
2019-05-21T04:17:58.245Z,28.38
2019-05-21T04:20:25.862Z,29.23
2019-05-21T04:22:53.483Z,28.10
2019-05-21T04:25:23.167Z,26.05
2019-05-21T04:27:51.169Z,24.02
2019-05-21T04:30:19.076Z,24.70
2019-05-21T04:32:47.094Z,23.80
2019-05-21T04:35:16.083Z,21.80
2019-05-21T04:37:43.818Z,23.55
2019-05-21T04:40:12.878Z,22.17
2019-05-21T04:42:41.385Z,22.95
2019-05-21T04:45:09.476Z,23.52
2019-05-21T04:47:37.556Z,23.25
2019-05-21T04:50:06.012Z,23.02
2019-05-21T04:52:33.719Z,22.35
2019-05-21T04:55:02.072Z,22.40
2019-05-21T04:57:30.047Z,21.12
2019-05-21T04:59:57.756Z,21.57
2019-05-21T05:02:25.450Z,22.87
2019-05-21T05:04:53.511Z,21.45
2019-05-21T05:07:28.452Z,21.33
2019-05-21T05:09:51.004Z,19.20
2019-05-21T05:12:18.636Z,17.48
2019-05-21T05:14:46.335Z,17.23
2019-05-21T05:17:14.556Z,17.37
2019-05-21T05:19:42.324Z,18.50
2019-05-21T05:22:10.299Z,18.67
2019-05-21T05:24:38.486Z,16.95
2019-05-21T05:27:06.131Z,16.42
2019-05-21T05:29:34.493Z,16.95
2019-05-21T05:32:02.065Z,16.80
2019-05-21T05:34:30.119Z,18.05
2019-05-21T05:36:59.168Z,18.05
2019-05-21T05:39:27.602Z,17.27
2019-05-21T05:41:55.170Z,16.32
2019-05-21T05:44:22.720Z,15.55
2019-05-21T05:46:50.357Z,15.78
2019-05-21T05:49:23.816Z,16.12
2019-05-21T05:51:51.410Z,15.83
2019-05-21T05:54:19.390Z,17.15
2019-05-21T05:56:47.076Z,14.83
2019-05-21T05:59:14.829Z,15.45
2019-05-21T06:01:42.890Z,14.98
2019-05-21T06:04:10.973Z,18.10
2019-05-21T06:06:38.911Z,13.40
2019-05-21T06:09:06.856Z,14.18
2019-05-21T06:11:34.787Z,13.90
2019-05-21T06:14:02.829Z,13.88
2019-05-21T06:16:30.493Z,12.73
2019-05-21T06:18:58.096Z,12.13
2019-05-21T06:21:25.817Z,11.85
2019-05-21T06:23:53.472Z,12.53
2019-05-21T06:26:21.348Z,11.65
2019-05-21T06:28:49.201Z,11.95
2019-05-21T06:31:17.498Z,10.60
2019-05-21T06:33:45.474Z,10.28
2019-05-21T06:36:13.755Z,11.35
2019-05-21T06:38:42.132Z,12.87
2019-05-21T06:41:10.848Z,11.80
2019-05-21T06:43:38.577Z,11.95
2019-05-21T06:46:06.445Z,12.60
2019-05-21T06:48:34.624Z,13.08
2019-05-21T06:51:02.939Z,14.55
2019-05-21T06:53:30.698Z,12.93
2019-05-21T06:55:59.024Z,11.43
2019-05-21T06:58:28.159Z,12.75
2019-05-21T07:00:56.586Z,10.90
2019-05-21T07:03:24.658Z,10.13
2019-05-21T07:05:58.802Z,11.35
2019-05-21T07:08:34.221Z,12.45
2019-05-21T07:10:51.905Z,10.72
2019-05-21T07:13:19.858Z,10.80
2019-05-21T07:15:50.923Z,10.73
2019-05-21T07:18:19.179Z,10.30
2019-05-21T07:20:47.454Z,9.73
2019-05-21T07:23:21.151Z,9.38
2019-05-21T07:25:49.029Z,9.15
2019-05-21T07:28:18.134Z,9.00
2019-05-21T07:30:46.405Z,8.78
2019-05-21T07:33:15.478Z,9.15
2019-05-21T07:35:43.492Z,9.67
2019-05-21T07:38:11.325Z,10.05
2019-05-21T07:40:39.288Z,10.10
2019-05-21T07:43:07.433Z,10.45
2019-05-21T07:45:35.752Z,10.20
2019-05-21T07:48:03.389Z,10.65
2019-05-21T07:50:31.669Z,10.25
2019-05-21T07:52:59.825Z,10.00
2019-05-21T07:55:28.852Z,10.25
2019-05-21T07:57:56.409Z,9.83
2019-05-21T08:00:24.653Z,9.10
2019-05-21T08:02:53.079Z,8.73
2019-05-21T08:05:21.536Z,9.00
2019-05-21T08:07:49.531Z,9.93
2019-05-21T08:10:17.701Z,9.25
2019-05-21T08:12:45.364Z,10.75
2019-05-21T08:15:14.394Z,8.73
2019-05-21T08:17:42.633Z,8.15
2019-05-21T08:20:12.664Z,11.28
2019-05-21T08:22:41.168Z,7.92
2019-05-21T08:25:14.209Z,8.33
2019-05-21T08:27:39.847Z,7.90
2019-05-21T08:30:07.614Z,7.10
2019-05-21T08:32:36.379Z,7.08
2019-05-21T08:35:04.295Z,6.00
2019-05-21T08:37:32.647Z,7.08
2019-05-21T08:40:00.399Z,6.80
2019-05-21T08:42:28.066Z,8.00
2019-05-21T08:44:56.552Z,6.65
2019-05-21T08:47:24.379Z,5.80
2019-05-21T08:49:52.061Z,4.60
2019-05-21T08:52:19.722Z,4.40
2019-05-21T08:54:49.090Z,5.00
2019-05-21T08:57:16.925Z,5.00
2019-05-21T08:59:44.669Z,5.20
2019-05-21T09:02:13.537Z,5.12
2019-05-21T09:04:46.459Z,5.10
2019-05-21T09:07:12.358Z,5.22
2019-05-21T09:09:50.045Z,5.28
2019-05-21T09:12:09.872Z,5.20
2019-05-21T09:14:37.595Z,6.37
2019-05-21T09:17:07.773Z,6.50
2019-05-21T09:19:36.681Z,7.47
2019-05-21T09:22:17.690Z,7.20
2019-05-21T09:24:48.007Z,7.40
2019-05-21T09:27:15.734Z,7.03
2019-05-21T09:29:45.208Z,6.72
2019-05-21T09:32:15.912Z,6.95
2019-05-21T09:34:48.945Z,7.15
2019-05-21T09:37:19.803Z,7.50
2019-05-21T09:39:43.145Z,9.13
2019-05-21T09:42:11.093Z,9.40
2019-05-21T09:44:39.232Z,10.60
2019-05-21T09:47:07.066Z,10.50
2019-05-21T09:49:35.005Z,10.20
2019-05-21T09:52:03.446Z,8.60
2019-05-21T09:54:30.989Z,8.70
2019-05-21T09:56:59.116Z,8.28
2019-05-21T09:59:55.249Z,7.85
2019-05-21T10:02:26.147Z,8.10
2019-05-21T10:04:54.596Z,8.98
2019-05-21T10:07:38.412Z,10.40
2019-05-21T10:09:54.954Z,8.45
2019-05-21T10:12:22.651Z,8.00
2019-05-21T10:14:50.248Z,8.65
2019-05-21T10:17:18.136Z,10.43
2019-05-21T10:19:46.133Z,9.20
2019-05-21T10:22:13.730Z,9.00
2019-05-21T10:24:41.725Z,8.83
2019-05-21T10:27:09.578Z,9.68
2019-05-21T10:29:37.715Z,9.83
2019-05-21T10:32:05.959Z,9.35
2019-05-21T10:34:33.543Z,9.10
2019-05-21T10:37:01.815Z,8.60
2019-05-21T10:39:29.489Z,10.68
2019-05-21T10:41:57.280Z,10.43
2019-05-21T10:44:25.628Z,12.37
2019-05-21T10:46:54.384Z,12.85
2019-05-21T10:49:22.140Z,17.15
2019-05-21T10:51:50.789Z,12.90
2019-05-21T10:54:19.305Z,13.18
2019-05-21T10:56:48.482Z,12.43
2019-05-21T10:59:16.827Z,11.53
2019-05-21T11:02:03.882Z,12.70
2019-05-21T11:04:39.418Z,13.25
2019-05-21T11:07:08.370Z,15.18
2019-05-21T11:09:37.077Z,14.13
2019-05-21T11:12:06.506Z,15.60
2019-05-21T11:14:34.411Z,13.20
2019-05-21T11:17:01.948Z,15.28
2019-05-21T11:19:29.975Z,13.32
2019-05-21T11:22:01.011Z,13.35
2019-05-21T11:24:36.229Z,13.60
2019-05-21T11:27:05.099Z,16.03
2019-05-21T11:29:33.564Z,19.30
2019-05-21T11:32:00.998Z,15.25
2019-05-21T11:34:28.537Z,16.37
2019-05-21T11:36:56.291Z,14.70
2019-05-21T11:39:24.107Z,14.50
2019-05-21T11:41:52.410Z,15.70
2019-05-21T11:44:20.392Z,14.70
2019-05-21T11:46:48.426Z,14.83
2019-05-21T11:49:16.300Z,15.35
2019-05-21T11:51:44.378Z,15.13
2019-05-21T11:54:12.123Z,16.12
2019-05-21T11:56:40.276Z,14.45
2019-05-21T11:59:07.986Z,14.38
2019-05-21T12:01:36.135Z,14.73
2019-05-21T12:04:03.721Z,14.53
2019-05-21T12:06:31.420Z,13.80
2019-05-21T12:08:59.550Z,13.48
2019-05-21T12:11:27.089Z,13.90
2019-05-21T12:13:55.001Z,13.50
2019-05-21T12:16:22.979Z,12.88
2019-05-21T12:18:50.728Z,12.35
2019-05-21T12:21:18.663Z,13.90
2019-05-21T12:23:46.988Z,13.63
2019-05-21T12:26:14.551Z,12.53
2019-05-21T12:28:42.292Z,13.40
2019-05-21T12:31:09.935Z,13.00
2019-05-21T12:33:37.786Z,12.25
2019-05-21T12:36:05.395Z,12.27
2019-05-21T12:38:33.376Z,12.35
2019-05-21T12:41:01.083Z,12.33
2019-05-21T12:43:28.900Z,12.03
2019-05-21T12:45:56.685Z,12.68
2019-05-21T12:48:24.854Z,13.15
2019-05-21T12:50:52.846Z,12.78
2019-05-21T12:53:20.692Z,13.32
2019-05-21T12:55:48.298Z,14.83
2019-05-21T12:58:16.917Z,13.30
2019-05-21T13:00:44.555Z,11.75
2019-05-21T13:03:12.399Z,11.10
2019-05-21T13:05:40.274Z,10.43
2019-05-21T13:08:08.160Z,10.93
2019-05-21T13:10:35.654Z,10.40
2019-05-21T13:13:03.433Z,10.15
2019-05-21T13:15:31.118Z,10.90
2019-05-21T13:17:59.353Z,10.68
2019-05-21T13:20:27.066Z,11.73
2019-05-21T13:22:55.077Z,13.08
2019-05-21T13:25:22.991Z,13.53
2019-05-21T13:27:50.931Z,13.62
2019-05-21T13:30:19.182Z,13.08
2019-05-21T13:32:46.748Z,13.20
2019-05-21T13:35:14.913Z,13.10
2019-05-21T13:37:43.928Z,13.60
2019-05-21T13:40:11.923Z,13.20
2019-05-21T13:42:39.626Z,14.85
2019-05-21T13:45:07.646Z,15.50
2019-05-21T13:47:36.635Z,15.98
2019-05-21T13:50:05.607Z,17.23
2019-05-21T13:52:33.478Z,15.00
2019-05-21T13:55:01.022Z,14.93
2019-05-21T13:57:28.904Z,15.25
2019-05-21T13:59:56.397Z,15.43
2019-05-21T14:02:24.288Z,16.10
2019-05-21T14:04:52.188Z,15.13
2019-05-21T14:07:20.270Z,14.27
2019-05-21T14:10:10.812Z,16.53
2019-05-21T14:12:19.279Z,15.53
2019-05-21T14:14:46.851Z,13.70
2019-05-21T14:17:14.932Z,14.35
2019-05-21T14:19:42.755Z,13.80
2019-05-21T14:22:11.077Z,13.10
2019-05-21T14:24:38.659Z,13.90
2019-05-21T14:27:06.895Z,13.35
2019-05-21T14:29:34.560Z,14.63
2019-05-21T14:32:02.500Z,14.68
2019-05-21T14:34:30.031Z,13.43
2019-05-21T14:36:57.861Z,15.00
2019-05-21T14:39:25.805Z,13.45
2019-05-21T14:41:53.900Z,12.35
2019-05-21T14:44:21.355Z,13.10
2019-05-21T14:46:49.978Z,12.28
2019-05-21T14:49:17.803Z,12.53
2019-05-21T14:51:45.504Z,12.68
2019-05-21T14:54:26.411Z,11.95
2019-05-21T14:56:47.295Z,11.53
2019-05-21T14:59:12.950Z,11.50
2019-05-21T15:01:40.513Z,11.47
2019-05-21T15:04:08.169Z,12.47
2019-05-21T15:06:35.762Z,11.78
2019-05-21T15:09:04.488Z,14.20
2019-05-21T15:11:32.250Z,13.05
2019-05-21T15:13:59.721Z,15.38
2019-05-21T15:16:27.564Z,13.43
2019-05-21T15:18:55.078Z,13.48
2019-05-21T15:21:32.885Z,13.32
2019-05-21T15:24:00.506Z,14.33
2019-05-21T15:26:29.518Z,13.22
2019-05-21T15:28:57.397Z,12.83
2019-05-21T15:31:26.062Z,12.95
2019-05-21T15:33:54.488Z,13.15
2019-05-21T15:36:25.510Z,13.53
2019-05-21T15:38:53.465Z,12.63
2019-05-21T15:41:22.946Z,12.43
2019-05-21T15:43:51.653Z,12.00
2019-05-21T15:46:19.618Z,12.03
2019-05-21T15:48:47.401Z,11.90
2019-05-21T15:51:15.527Z,11.80
2019-05-21T15:53:43.012Z,12.82
2019-05-21T15:56:10.578Z,12.10
2019-05-21T15:58:38.386Z,11.38
2019-05-21T16:01:06.358Z,17.10
2019-05-21T16:03:34.181Z,16.07
2019-05-21T16:06:01.687Z,11.75
2019-05-21T16:08:29.572Z,11.40
2019-05-21T16:10:57.502Z,11.60
2019-05-21T16:13:25.098Z,13.93
2019-05-21T16:15:52.633Z,12.15
2019-05-21T16:18:21.032Z,12.95
2019-05-21T16:20:48.743Z,10.75
2019-05-21T16:23:16.739Z,10.10
2019-05-21T16:25:44.628Z,10.00
2019-05-21T16:28:13.250Z,10.57
2019-05-21T16:30:41.313Z,9.25
2019-05-21T16:33:09.039Z,9.10
2019-05-21T16:35:36.674Z,8.80
2019-05-21T16:38:04.598Z,9.10
2019-05-21T16:40:32.407Z,9.10
2019-05-21T16:43:00.620Z,8.35
2019-05-21T16:45:28.185Z,8.18
2019-05-21T16:47:56.030Z,8.20
2019-05-21T16:50:23.544Z,8.18
2019-05-21T16:52:51.322Z,8.17
2019-05-21T16:55:19.169Z,8.08
2019-05-21T16:57:47.445Z,7.53
2019-05-21T17:00:16.685Z,8.00
2019-05-21T17:02:44.123Z,7.28
2019-05-21T17:05:11.687Z,8.53
2019-05-21T17:07:39.703Z,7.85
2019-05-21T17:10:08.439Z,7.80
2019-05-21T17:12:36.257Z,7.53
2019-05-21T17:15:05.796Z,7.67
2019-05-21T17:17:34.733Z,8.03
2019-05-21T17:20:02.854Z,7.50
2019-05-21T17:22:31.215Z,7.53
2019-05-21T17:25:00.326Z,7.85
2019-05-21T17:27:28.589Z,8.80
2019-05-21T17:29:56.412Z,8.80
2019-05-21T17:32:24.897Z,9.40
2019-05-21T17:34:52.569Z,10.23
2019-05-21T17:37:20.669Z,9.83
2019-05-21T17:39:48.566Z,10.07
2019-05-21T17:42:16.356Z,9.88
2019-05-21T17:44:44.246Z,9.40
2019-05-21T17:47:12.110Z,9.10
2019-05-21T17:49:41.035Z,9.18
2019-05-21T17:52:08.862Z,9.38
2019-05-21T17:54:36.891Z,8.70
2019-05-21T17:57:05.355Z,8.47
2019-05-21T17:59:33.267Z,8.35
2019-05-21T18:02:02.712Z,7.90
2019-05-21T18:04:31.184Z,7.87
2019-05-21T18:06:59.262Z,7.40
2019-05-21T18:09:26.825Z,7.10
2019-05-21T18:11:55.472Z,7.33
2019-05-21T18:14:24.758Z,7.22
2019-05-21T18:16:53.823Z,6.70
2019-05-21T18:19:22.206Z,8.08
2019-05-21T18:21:50.466Z,7.20
2019-05-21T18:24:18.152Z,7.37
2019-05-21T18:26:46.513Z,7.10
2019-05-21T18:29:13.947Z,8.93
2019-05-21T18:31:41.811Z,8.38
2019-05-21T18:34:09.974Z,8.80
2019-05-21T18:36:37.888Z,9.98
2019-05-21T18:39:06.030Z,9.65
2019-05-21T18:41:34.565Z,9.70
2019-05-21T18:44:02.271Z,8.50
2019-05-21T18:46:31.188Z,8.20
2019-05-21T18:48:58.940Z,8.80
2019-05-21T18:51:26.812Z,8.60
2019-05-21T18:53:56.012Z,7.85
2019-05-21T18:56:23.639Z,7.72
2019-05-21T18:58:51.295Z,7.62
2019-05-21T19:01:18.950Z,7.90
2019-05-21T19:03:46.759Z,7.70
2019-05-21T19:06:14.313Z,7.80
2019-05-21T19:08:42.108Z,7.80
2019-05-21T19:11:09.549Z,7.60
2019-05-21T19:13:37.484Z,7.63
2019-05-21T19:16:05.021Z,7.75
2019-05-21T19:18:33.040Z,7.92
2019-05-21T19:21:00.754Z,7.50
2019-05-21T19:23:28.317Z,7.87
2019-05-21T19:25:56.146Z,7.47
2019-05-21T19:28:24.031Z,7.72
2019-05-21T19:30:51.862Z,7.62
2019-05-21T19:33:19.793Z,7.60
2019-05-21T19:35:47.518Z,8.25
2019-05-21T19:38:16.542Z,8.10
2019-05-21T19:40:44.676Z,8.05
2019-05-21T19:43:12.500Z,7.67
2019-05-21T19:45:40.319Z,7.90
2019-05-21T19:48:07.776Z,7.83
2019-05-21T19:50:36.093Z,8.50
2019-05-21T19:53:03.820Z,9.15
2019-05-21T19:55:31.392Z,8.50
2019-05-21T19:57:59.569Z,8.38
2019-05-21T20:00:29.907Z,8.85
2019-05-21T20:02:57.389Z,8.40
2019-05-21T20:05:25.689Z,9.30
2019-05-21T20:07:55.765Z,9.70
2019-05-21T20:10:23.470Z,10.00
2019-05-21T20:12:51.803Z,10.20
2019-05-21T20:15:19.360Z,9.73
2019-05-21T20:17:50.959Z,10.05
2019-05-21T20:20:20.172Z,10.47
2019-05-21T20:22:50.786Z,9.68
2019-05-21T20:25:19.985Z,10.50
2019-05-21T20:27:48.942Z,11.00
2019-05-21T20:30:20.480Z,10.98
2019-05-21T20:32:49.873Z,11.55
2019-05-21T20:35:17.944Z,11.18
2019-05-21T20:37:47.876Z,11.93
2019-05-21T20:40:16.007Z,12.37
2019-05-21T20:42:44.285Z,11.88
2019-05-21T20:45:14.736Z,11.70
2019-05-21T20:47:44.316Z,11.90
2019-05-21T20:50:14.046Z,11.85
2019-05-21T20:52:42.304Z,11.10
2019-05-21T20:55:10.489Z,11.93
2019-05-21T20:57:38.168Z,11.43
2019-05-21T21:00:06.453Z,10.93
2019-05-21T21:02:37.062Z,10.60
2019-05-21T21:05:05.766Z,10.13
2019-05-21T21:07:33.475Z,10.08
2019-05-21T21:10:01.607Z,9.53
2019-05-21T21:12:30.428Z,9.55
2019-05-21T21:14:58.311Z,8.85
2019-05-21T21:17:26.559Z,9.23
2019-05-21T21:19:55.114Z,9.03
2019-05-21T21:22:22.731Z,8.80
2019-05-21T21:24:51.333Z,8.40
2019-05-21T21:27:19.363Z,8.75
2019-05-21T21:29:47.527Z,7.90
2019-05-21T21:32:15.636Z,8.20
2019-05-21T21:34:43.429Z,8.10
2019-05-21T21:37:11.751Z,7.87
2019-05-21T21:39:40.042Z,8.15
2019-05-21T21:42:09.412Z,8.20
2019-05-21T21:44:37.256Z,8.00
2019-05-21T21:47:04.814Z,8.35
2019-05-21T21:49:34.813Z,8.90
2019-05-21T21:52:05.538Z,9.00
2019-05-21T21:54:33.266Z,9.25
2019-05-21T21:57:00.780Z,9.77
2019-05-21T21:59:30.260Z,9.63
2019-05-21T22:02:05.133Z,10.43
2019-05-21T22:04:35.095Z,10.32
2019-05-21T22:07:05.155Z,11.00
2019-05-21T22:09:35.316Z,11.03
2019-05-21T22:12:08.445Z,11.20
2019-05-21T22:14:49.599Z,10.80
2019-05-21T22:17:08.719Z,11.70
2019-05-21T22:19:37.056Z,11.68
2019-05-21T22:22:07.240Z,12.10
2019-05-21T22:24:35.423Z,12.50
2019-05-21T22:27:05.019Z,12.70
2019-05-21T22:29:33.375Z,13.25
2019-05-21T22:32:02.201Z,12.93
2019-05-21T22:34:30.613Z,15.25
2019-05-21T22:36:58.600Z,13.98
2019-05-21T22:39:29.405Z,13.90
2019-05-21T22:41:57.257Z,13.95
2019-05-21T22:44:25.369Z,14.07
2019-05-21T22:46:53.857Z,14.50
2019-05-21T22:49:21.733Z,14.18
2019-05-21T22:51:49.806Z,15.18
2019-05-21T22:54:17.777Z,15.83
2019-05-21T22:56:45.514Z,16.27
2019-05-21T22:59:12.993Z,16.52
2019-05-21T23:01:42.177Z,17.00
2019-05-21T23:04:10.862Z,17.62
2019-05-21T23:06:39.621Z,18.20
2019-05-21T23:09:07.867Z,18.90
2019-05-21T23:11:35.798Z,18.60
2019-05-21T23:14:04.567Z,17.92
2019-05-21T23:16:32.983Z,18.67
2019-05-21T23:19:24.213Z,18.90
2019-05-21T23:21:53.892Z,19.12
2019-05-21T23:24:23.189Z,19.32
2019-05-21T23:26:52.080Z,18.98
2019-05-21T23:29:22.094Z,19.52
2019-05-21T23:31:49.986Z,19.82
2019-05-21T23:34:18.902Z,20.05
2019-05-21T23:36:47.641Z,19.75
2019-05-21T23:39:20.671Z,20.50
2019-05-21T23:41:50.638Z,20.55
2019-05-21T23:44:19.268Z,20.92
2019-05-21T23:46:47.559Z,20.80
2019-05-21T23:49:15.355Z,21.57
2019-05-21T23:51:45.083Z,21.23
2019-05-21T23:54:12.747Z,21.17
2019-05-21T23:56:40.568Z,21.17
2019-05-21T23:59:08.921Z,21.73
